Time;durP1;ratioP1;P1;durP2;ratioP2;P2;SDS_P1;SDS_P2;PMS_P1;PMS_P2;Temp;Humidity;BMP_temperature;BMP_pressure;BME280_temperature;BME280_humidity;BME280_pressure;Samples;Min_cycle;Max_cycle;Signal;HPM_P1;HPM_P2
2023/08/27 00:02:22;;;;;;;5.03;1.73;;;17.20;99.90;;;;;;5058565;28;20036;-73
2023/08/27 00:05:09;;;;;;;5.47;1.60;;;17.20;99.90;;;;;;5095824;28;20038;-71
2023/08/27 00:07:54;;;;;;;3.35;1.58;;;17.10;99.90;;;;;;5079345;28;20055;-73
2023/08/27 00:10:40;;;;;;;4.65;2.10;;;17.00;99.90;;;;;;5095593;28;20035;-72
2023/08/27 00:13:26;;;;;;;3.47;1.60;;;17.10;99.90;;;;;;5059308;28;20047;-72
2023/08/27 00:16:12;;;;;;;4.15;1.67;;;17.00;99.90;;;;;;5083452;28;20071;-72
2023/08/27 00:18:58;;;;;;;8.82;1.80;;;17.00;99.90;;;;;;5102115;28;20538;-71
2023/08/27 00:21:44;;;;;;;2.72;1.80;;;17.10;99.90;;;;;;5064874;28;20142;-72
2023/08/27 00:24:32;;;;;;;3.40;1.60;;;17.10;99.90;;;;;;5074295;28;20452;-71
2023/08/27 00:27:18;;;;;;;3.42;1.60;;;17.00;99.90;;;;;;5072796;28;20050;-71
2023/08/27 00:30:04;;;;;;;3.15;1.63;;;17.10;99.90;;;;;;5057704;28;20055;-72
2023/08/27 00:32:50;;;;;;;5.28;1.52;;;17.10;99.90;;;;;;5053014;28;20044;-72
2023/08/27 00:35:36;;;;;;;4.88;1.83;;;17.00;99.90;;;;;;5070907;28;20127;-72
2023/08/27 00:38:22;;;;;;;2.92;1.73;;;17.10;99.90;;;;;;5071489;28;20040;-71
2023/08/27 00:41:08;;;;;;;4.38;1.65;;;17.00;99.90;;;;;;5083190;28;20754;-72
2023/08/27 00:43:54;;;;;;;3.28;1.67;;;16.90;99.90;;;;;;5055571;28;20040;-72
2023/08/27 00:46:40;;;;;;;4.05;1.55;;;16.90;99.90;;;;;;5056291;28;20036;-72
2023/08/27 00:49:26;;;;;;;3.70;1.60;;;17.00;99.90;;;;;;5073353;28;20043;-71
2023/08/27 00:52:16;;;;;;;2.10;1.38;;;17.00;99.90;;;;;;5046837;28;20048;-71
2023/08/27 00:55:03;;;;;;;3.47;1.52;;;16.90;99.90;;;;;;5040597;28;20090;-71
2023/08/27 00:57:49;;;;;;;3.70;1.50;;;17.00;99.90;;;;;;5072304;28;20036;-71
2023/08/27 01:00:35;;;;;;;2.88;1.45;;;17.00;99.90;;;;;;5061078;28;20047;-72
2023/08/27 01:03:23;;;;;;;4.95;1.60;;;17.10;99.90;;;;;;5062972;28;20032;-72
2023/08/27 01:06:09;;;;;;;3.60;1.48;;;17.10;99.90;;;;;;5066312;28;20105;-71
2023/08/27 01:09:41;;;;;;;2.92;1.30;;;17.10;99.90;;;;;;5059171;28;20040;-72
2023/08/27 01:12:35;;;;;;;3.95;1.38;;;17.10;99.90;;;;;;5064387;28;20134;-72
2023/08/27 01:15:23;;;;;;;3.97;1.83;;;17.10;99.90;;;;;;5071423;28;20586;-72
2023/08/27 01:18:09;;;;;;;5.70;1.55;;;17.10;99.90;;;;;;5059901;28;21075;-71
2023/08/27 01:20:57;;;;;;;3.35;1.77;;;17.10;99.90;;;;;;5055092;28;20452;-72
2023/08/27 01:23:45;;;;;;;6.35;1.52;;;17.10;99.90;;;;;;5043817;28;20036;-72
2023/08/27 01:26:37;;;;;;;5.32;1.70;;;17.10;99.90;;;;;;5040390;28;20043;-72
2023/08/27 01:29:48;;;;;;;3.17;1.42;;;17.10;99.90;;;;;;5052217;28;20044;-72
2023/08/27 01:32:43;;;;;;;3.70;1.52;;;17.10;99.90;;;;;;5053045;28;20040;-72
2023/08/27 01:35:30;;;;;;;4.88;1.38;;;17.10;99.90;;;;;;5081500;28;20634;-72
2023/08/27 01:38:17;;;;;;;3.28;1.70;;;17.20;99.90;;;;;;5066337;28;20048;-72
2023/08/27 01:41:05;;;;;;;4.07;1.80;;;17.20;99.90;;;;;;5077281;28;20039;-72
2023/08/27 01:43:51;;;;;;;3.92;1.38;;;17.20;99.90;;;;;;5090697;28;20115;-71
2023/08/27 01:46:37;;;;;;;5.88;2.20;;;17.20;99.90;;;;;;5086377;28;20798;-72
2023/08/27 01:49:23;;;;;;;2.42;1.60;;;17.20;99.90;;;;;;5076803;28;20036;-71
2023/08/27 01:52:09;;;;;;;6.57;1.75;;;17.10;99.90;;;;;;5076728;28;20040;-72
2023/08/27 01:54:55;;;;;;;3.20;1.50;;;17.10;99.90;;;;;;5067942;28;20055;-72
2023/08/27 01:57:41;;;;;;;5.38;1.80;;;17.10;99.90;;;;;;5075911;28;20609;-72
2023/08/27 02:00:27;;;;;;;2.90;1.38;;;17.10;99.90;;;;;;5076414;28;20341;-71
2023/08/27 02:03:14;;;;;;;2.67;1.30;;;17.10;99.90;;;;;;5077300;28;20036;-71
2023/08/27 02:06:00;;;;;;;2.78;1.42;;;17.10;99.90;;;;;;5077045;28;20071;-71
2023/08/27 02:08:46;;;;;;;4.43;1.60;;;17.10;99.90;;;;;;5064014;28;20063;-71
2023/08/27 02:11:31;;;;;;;4.45;1.55;;;17.00;99.90;;;;;;5076962;28;20104;-71
2023/08/27 02:14:17;;;;;;;3.95;1.50;;;17.00;99.90;;;;;;5062182;28;20039;-72
2023/08/27 02:17:04;;;;;;;3.65;1.40;;;17.00;99.90;;;;;;5076193;28;20034;-71
2023/08/27 02:19:50;;;;;;;3.22;1.67;;;16.90;99.90;;;;;;5062291;28;20059;-72
2023/08/27 02:22:36;;;;;;;3.08;1.30;;;16.90;99.90;;;;;;5075742;28;20481;-72
2023/08/27 02:25:22;;;;;;;6.30;1.63;;;17.00;99.90;;;;;;5069696;28;20480;-72
2023/08/27 02:28:08;;;;;;;5.85;1.45;;;16.90;99.90;;;;;;5076743;28;20052;-73
2023/08/27 02:30:55;;;;;;;3.33;1.52;;;16.90;99.90;;;;;;5077739;28;20051;-72
2023/08/27 02:33:41;;;;;;;2.42;1.52;;;17.00;99.90;;;;;;5077246;28;20062;-73
2023/08/27 02:36:27;;;;;;;3.28;1.85;;;16.90;99.90;;;;;;5090644;28;20048;-73
2023/08/27 02:39:13;;;;;;;2.63;1.45;;;16.90;99.90;;;;;;5091139;28;20135;-72
2023/08/27 02:41:59;;;;;;;3.33;1.70;;;16.90;99.90;;;;;;5074838;28;20094;-71
2023/08/27 02:44:45;;;;;;;3.25;1.30;;;17.00;99.90;;;;;;5077581;28;20476;-72
2023/08/27 02:47:31;;;;;;;5.05;1.73;;;17.00;99.90;;;;;;5075696;28;20109;-72
2023/08/27 02:50:17;;;;;;;3.22;1.50;;;17.00;99.90;;;;;;5083821;28;20044;-71
2023/08/27 02:53:03;;;;;;;3.25;1.67;;;17.00;99.90;;;;;;5090892;28;20468;-71
2023/08/27 02:55:49;;;;;;;4.75;1.90;;;17.00;99.90;;;;;;5089129;28;20104;-72
2023/08/27 02:58:35;;;;;;;4.25;1.80;;;17.00;99.90;;;;;;5070166;28;20047;-72
2023/08/27 03:01:21;;;;;;;3.03;1.40;;;17.10;99.90;;;;;;5089935;28;20032;-71
2023/08/27 03:04:07;;;;;;;8.77;1.80;;;17.00;99.90;;;;;;5073461;28;20041;-72
2023/08/27 03:06:53;;;;;;;3.58;1.77;;;16.90;99.90;;;;;;5091595;28;20043;-72
2023/08/27 03:09:39;;;;;;;4.95;1.90;;;17.00;99.90;;;;;;5085248;28;20040;-73
2023/08/27 03:12:25;;;;;;;2.53;1.50;;;16.80;99.90;;;;;;5061945;28;20040;-71
2023/08/27 03:15:10;;;;;;;3.28;1.50;;;16.90;99.90;;;;;;5090406;28;20647;-73
2023/08/27 03:17:58;;;;;;;3.88;1.70;;;16.90;99.90;;;;;;5085775;28;20074;-72
2023/08/27 03:20:44;;;;;;;2.67;1.70;;;16.90;99.90;;;;;;5077599;28;20159;-71
2023/08/27 03:23:34;;;;;;;3.97;1.40;;;17.00;99.90;;;;;;5054884;28;20274;-72
2023/08/27 03:26:21;;;;;;;4.32;1.88;;;17.00;99.90;;;;;;5075499;28;20040;-72
2023/08/27 03:29:07;;;;;;;3.08;1.63;;;16.90;99.90;;;;;;5079205;28;20389;-71
2023/08/27 03:31:53;;;;;;;3.90;1.95;;;16.90;99.90;;;;;;5076440;28;20040;-71
2023/08/27 03:34:39;;;;;;;3.53;1.63;;;16.90;99.90;;;;;;5090347;28;20048;-71
2023/08/27 03:37:25;;;;;;;3.63;1.65;;;16.90;99.90;;;;;;5089029;28;20384;-72
2023/08/27 03:40:11;;;;;;;5.60;1.55;;;16.80;99.90;;;;;;5057541;28;20958;-72
2023/08/27 03:42:57;;;;;;;3.45;1.52;;;16.90;99.90;;;;;;5071762;28;20044;-72
2023/08/27 03:45:43;;;;;;;3.90;1.67;;;16.90;99.90;;;;;;5073849;28;20741;-73
2023/08/27 03:48:29;;;;;;;2.72;1.70;;;16.80;99.90;;;;;;5069861;28;20039;-71
2023/08/27 03:51:15;;;;;;;3.78;2.00;;;16.90;99.90;;;;;;5071388;28;20597;-71
2023/08/27 03:54:02;;;;;;;3.88;1.50;;;16.80;99.90;;;;;;5055850;28;20052;-72
2023/08/27 03:56:48;;;;;;;3.15;1.50;;;16.80;99.90;;;;;;5071953;28;20040;-71
2023/08/27 03:59:34;;;;;;;3.95;1.60;;;16.90;99.90;;;;;;5075492;28;20380;-72
2023/08/27 04:02:20;;;;;;;3.53;1.60;;;16.80;99.90;;;;;;5053658;28;20044;-71
2023/08/27 04:05:07;;;;;;;2.63;1.38;;;16.90;99.90;;;;;;5054997;28;20086;-71
2023/08/27 04:07:53;;;;;;;3.58;1.50;;;16.80;99.90;;;;;;5084870;28;20071;-71
2023/08/27 04:10:39;;;;;;;7.50;2.22;;;16.90;99.90;;;;;;5072424;28;20040;-72
2023/08/27 04:13:25;;;;;;;3.13;1.48;;;16.90;99.90;;;;;;5075159;28;20431;-71
2023/08/27 04:16:11;;;;;;;2.97;1.88;;;16.90;99.90;;;;;;5058629;28;20036;-72
2023/08/27 04:18:57;;;;;;;4.80;1.63;;;16.90;99.90;;;;;;5081192;28;20126;-71
2023/08/27 04:21:43;;;;;;;3.65;1.50;;;17.00;99.90;;;;;;5065816;28;20540;-71
2023/08/27 04:24:29;;;;;;;2.28;1.42;;;16.90;99.90;;;;;;5064789;28;20046;-72
2023/08/27 04:27:16;;;;;;;4.25;1.35;;;17.00;99.90;;;;;;5086650;28;20130;-71
2023/08/27 04:30:03;;;;;;;4.35;1.70;;;17.00;99.90;;;;;;5062990;28;20047;-72
2023/08/27 04:32:49;;;;;;;2.40;1.45;;;17.00;99.90;;;;;;5080250;28;20463;-72
2023/08/27 04:35:35;;;;;;;4.35;2.13;;;17.00;99.90;;;;;;5092191;28;20117;-72
2023/08/27 04:38:21;;;;;;;4.97;1.63;;;16.90;99.90;;;;;;5065851;28;20055;-71
2023/08/27 04:41:07;;;;;;;4.50;1.42;;;17.00;99.90;;;;;;5080855;28;20157;-73
2023/08/27 04:43:53;;;;;;;3.50;1.77;;;16.90;99.90;;;;;;5093169;28;20064;-72
2023/08/27 04:46:39;;;;;;;3.45;1.83;;;16.80;99.90;;;;;;5081384;28;20039;-72
2023/08/27 04:49:25;;;;;;;6.60;2.00;;;16.80;99.90;;;;;;5107945;28;20039;-71
2023/08/27 04:52:14;;;;;;;2.83;1.45;;;16.80;99.90;;;;;;5090154;28;20043;-72
2023/08/27 04:55:00;;;;;;;5.00;1.90;;;16.80;99.90;;;;;;5101028;28;20459;-72
2023/08/27 04:57:46;;;;;;;3.42;1.60;;;16.80;99.90;;;;;;5071220;28;20039;-72
2023/08/27 05:00:32;;;;;;;4.40;1.73;;;16.80;99.90;;;;;;5067351;28;20035;-72
2023/08/27 05:03:18;;;;;;;2.13;1.38;;;16.80;99.90;;;;;;5061504;28;20122;-71
2023/08/27 05:06:04;;;;;;;3.05;1.73;;;16.80;99.90;;;;;;5063211;28;20044;-72
2023/08/27 05:08:50;;;;;;;4.57;1.77;;;16.80;99.90;;;;;;5107451;28;20462;-72
2023/08/27 05:11:36;;;;;;;5.88;1.85;;;16.80;99.90;;;;;;5073349;28;20454;-72
2023/08/27 05:14:22;;;;;;;3.70;1.55;;;16.80;99.90;;;;;;5082943;28;20134;-72
2023/08/27 05:17:08;;;;;;;5.78;1.55;;;16.80;99.90;;;;;;5084130;28;20058;-72
2023/08/27 05:19:54;;;;;;;3.10;1.90;;;16.80;99.90;;;;;;5092189;28;20036;-71
2023/08/27 05:22:40;;;;;;;3.60;1.70;;;16.80;99.90;;;;;;5111931;28;20051;-71
2023/08/27 05:25:26;;;;;;;2.30;1.48;;;16.80;99.90;;;;;;5078756;28;20050;-72
2023/08/27 05:28:12;;;;;;;3.00;1.58;;;16.90;99.90;;;;;;5088356;28;20136;-72
2023/08/27 05:30:58;;;;;;;3.83;1.80;;;16.80;99.90;;;;;;5088779;28;20570;-71
2023/08/27 05:33:44;;;;;;;3.97;1.73;;;16.80;99.90;;;;;;5080070;28;20150;-71
2023/08/27 05:36:30;;;;;;;3.40;1.90;;;16.80;99.90;;;;;;5072563;28;20062;-72
2023/08/27 05:39:16;;;;;;;2.72;1.77;;;16.80;99.90;;;;;;5101887;28;20535;-72
2023/08/27 05:42:02;;;;;;;5.05;1.70;;;16.80;99.90;;;;;;5086103;28;20664;-72
2023/08/27 05:44:48;;;;;;;4.35;2.25;;;16.80;99.90;;;;;;5078982;28;20055;-72
2023/08/27 05:47:34;;;;;;;3.08;1.77;;;16.80;99.90;;;;;;5070052;28;20040;-71
2023/08/27 05:50:20;;;;;;;3.17;1.60;;;16.80;99.90;;;;;;5112472;28;20039;-72
2023/08/27 05:53:06;;;;;;;3.08;1.67;;;16.80;99.90;;;;;;5098208;28;20044;-72
2023/08/27 05:55:53;;;;;;;4.40;1.70;;;16.80;99.90;;;;;;5076197;28;20046;-71
2023/08/27 05:58:39;;;;;;;3.60;2.20;;;16.80;99.90;;;;;;5090646;28;20078;-71
2023/08/27 06:01:25;;;;;;;4.85;1.80;;;16.80;99.90;;;;;;5077580;28;20331;-72
2023/08/27 06:04:11;;;;;;;5.22;2.10;;;16.90;99.90;;;;;;5083103;28;20050;-72
2023/08/27 06:06:57;;;;;;;2.88;1.50;;;16.90;99.90;;;;;;5081486;28;20067;-72
2023/08/27 06:09:43;;;;;;;4.28;1.70;;;16.90;99.90;;;;;;5091455;28;20042;-72
2023/08/27 06:12:29;;;;;;;3.22;1.50;;;17.00;99.90;;;;;;5095963;28;20043;-72
2023/08/27 06:15:15;;;;;;;4.20;1.70;;;17.00;99.90;;;;;;5088210;28;20177;-72
2023/08/27 06:18:03;;;;;;;2.95;1.80;;;17.10;99.90;;;;;;5101268;28;20435;-72
2023/08/27 06:20:49;;;;;;;3.70;1.63;;;17.00;99.90;;;;;;5079245;28;20124;-73
2023/08/27 06:23:35;;;;;;;7.00;2.70;;;17.10;99.90;;;;;;5071811;28;20044;-71
2023/08/27 06:26:21;;;;;;;5.05;2.85;;;17.10;99.90;;;;;;5066517;28;20655;-71
2023/08/27 06:29:07;;;;;;;4.95;1.90;;;17.10;99.90;;;;;;5060548;28;20522;-72
2023/08/27 06:31:53;;;;;;;3.90;1.70;;;17.10;99.90;;;;;;5085362;28;20040;-71
2023/08/27 06:34:39;;;;;;;5.68;1.80;;;17.10;99.90;;;;;;5094808;28;20525;-71
2023/08/27 06:37:25;;;;;;;5.72;1.70;;;17.20;99.90;;;;;;5076014;28;20043;-72
2023/08/27 06:40:12;;;;;;;5.50;1.50;;;17.20;99.90;;;;;;5109202;28;20675;-72
2023/08/27 06:42:59;;;;;;;3.55;1.60;;;17.20;99.90;;;;;;5074053;28;20068;-72
2023/08/27 06:45:45;;;;;;;3.00;1.73;;;17.20;99.90;;;;;;5106802;28;20488;-72
2023/08/27 06:48:32;;;;;;;4.25;2.00;;;17.20;99.90;;;;;;5078956;28;20044;-71
2023/08/27 06:51:18;;;;;;;3.85;1.95;;;17.30;99.90;;;;;;5082606;28;20040;-71
2023/08/27 06:54:04;;;;;;;6.78;1.92;;;17.30;99.90;;;;;;5071931;28;20130;-71
2023/08/27 06:56:50;;;;;;;3.63;2.00;;;17.30;99.90;;;;;;5096348;28;20044;-72
2023/08/27 06:59:36;;;;;;;5.63;2.10;;;17.40;99.90;;;;;;5089789;28;20040;-72
2023/08/27 07:02:22;;;;;;;3.03;1.92;;;17.40;99.90;;;;;;5089850;28;20071;-71
2023/08/27 07:05:08;;;;;;;3.47;1.90;;;17.50;99.90;;;;;;5078973;28;20039;-72
2023/08/27 07:07:54;;;;;;;6.30;1.95;;;17.50;99.90;;;;;;5081582;28;20039;-72
2023/08/27 07:10:40;;;;;;;4.25;2.08;;;17.60;99.90;;;;;;5090902;28;20043;-72
2023/08/27 07:13:26;;;;;;;3.08;1.70;;;17.50;99.90;;;;;;5080255;28;20845;-71
2023/08/27 07:16:12;;;;;;;4.40;1.90;;;17.60;99.90;;;;;;5085342;28;20073;-71
2023/08/27 07:18:58;;;;;;;5.22;2.00;;;17.60;99.90;;;;;;5058480;28;20032;-72
2023/08/27 07:21:44;;;;;;;5.60;2.08;;;17.60;99.90;;;;;;5086256;28;20398;-71
2023/08/27 07:24:30;;;;;;;6.00;1.90;;;17.70;99.90;;;;;;5094733;28;20036;-71
2023/08/27 07:27:16;;;;;;;5.22;2.20;;;17.70;99.90;;;;;;5079933;28;20043;-71
2023/08/27 07:30:03;;;;;;;3.03;1.67;;;17.70;99.90;;;;;;5081542;28;20136;-72
2023/08/27 07:32:50;;;;;;;4.80;2.22;;;17.70;99.90;;;;;;5079136;28;20498;-72
2023/08/27 07:35:36;;;;;;;2.17;1.40;;;17.70;99.90;;;;;;5083130;28;20059;-72
2023/08/27 07:38:26;;;;;;;3.92;1.75;;;17.80;99.90;;;;;;5088399;28;20047;-72
2023/08/27 07:41:13;;;;;;;3.90;1.88;;;17.80;99.90;;;;;;5074079;28;20031;-71
2023/08/27 07:43:59;;;;;;;4.00;1.98;;;17.90;99.90;;;;;;5081705;28;20040;-73
2023/08/27 07:46:45;;;;;;;2.95;1.88;;;17.90;99.90;;;;;;5089766;28;20040;-72
2023/08/27 07:49:31;;;;;;;5.15;1.75;;;17.90;99.90;;;;;;5094616;28;20031;-72
2023/08/27 07:52:17;;;;;;;3.53;2.20;;;18.00;99.90;;;;;;5100976;28;20152;-71
2023/08/27 07:55:03;;;;;;;4.75;1.98;;;17.90;99.90;;;;;;5094204;28;20075;-72
2023/08/27 07:57:49;;;;;;;4.85;1.90;;;18.00;99.90;;;;;;5102346;28;20089;-72
2023/08/27 08:00:35;;;;;;;5.10;2.60;;;18.00;99.90;;;;;;5079937;28;20105;-71
2023/08/27 08:03:21;;;;;;;3.33;2.10;;;18.00;99.90;;;;;;5080787;28;20451;-72
2023/08/27 08:06:08;;;;;;;4.50;2.25;;;18.00;99.90;;;;;;5071832;28;20039;-72
2023/08/27 08:08:53;;;;;;;6.10;1.83;;;18.10;99.90;;;;;;5085246;28;20046;-71
2023/08/27 08:11:39;;;;;;;3.08;1.67;;;18.10;99.90;;;;;;5079654;28;20375;-71
2023/08/27 08:14:25;;;;;;;4.75;2.08;;;18.10;99.90;;;;;;5093322;28;20062;-71
2023/08/27 08:17:12;;;;;;;5.00;1.65;;;18.10;99.90;;;;;;5093999;28;20126;-71
2023/08/27 08:19:58;;;;;;;4.50;1.80;;;18.10;99.90;;;;;;5092950;28;20035;-71
2023/08/27 08:22:44;;;;;;;3.00;1.60;;;18.20;99.90;;;;;;5082009;28;20376;-71
2023/08/27 08:25:31;;;;;;;6.00;1.80;;;18.20;99.90;;;;;;5078836;28;20070;-71
2023/08/27 08:28:17;;;;;;;2.80;1.77;;;18.20;99.90;;;;;;5059866;28;20056;-71
2023/08/27 08:31:03;;;;;;;3.47;1.70;;;18.20;99.90;;;;;;5072367;28;20059;-73
2023/08/27 08:33:49;;;;;;;4.00;1.55;;;18.30;99.90;;;;;;5068088;28;20160;-74
2023/08/27 08:36:35;;;;;;;7.72;2.13;;;18.30;99.90;;;;;;5081724;28;20056;-71
2023/08/27 08:39:21;;;;;;;4.88;1.98;;;18.30;99.90;;;;;;5068862;28;20127;-72
2023/08/27 08:42:09;;;;;;;4.05;1.65;;;18.40;99.90;;;;;;5046647;28;20498;-74
2023/08/27 08:45:13;;;;;;;4.43;2.35;;;18.40;99.90;;;;;;5071070;28;20094;-74
2023/08/27 08:48:01;;;;;;;8.02;3.00;;;18.50;99.90;;;;;;5074399;28;20040;-75
2023/08/27 08:50:47;;;;;;;5.75;3.25;;;18.40;99.90;;;;;;5078237;28;20070;-74
2023/08/27 08:53:42;;;;;;;4.78;2.35;;;18.50;99.90;;;;;;5073055;28;20559;-74
2023/08/27 08:56:31;;;;;;;4.78;2.50;;;18.50;99.90;;;;;;5079456;28;20040;-74
2023/08/27 08:59:17;;;;;;;5.38;2.03;;;18.50;99.90;;;;;;5079507;28;20710;-76
2023/08/27 09:02:04;;;;;;;4.00;2.20;;;18.50;99.90;;;;;;5061553;28;20055;-74
2023/08/27 09:04:51;;;;;;;6.55;2.58;;;18.50;99.90;;;;;;5080039;28;20040;-74
2023/08/27 09:07:41;;;;;;;3.40;2.10;;;18.60;99.90;;;;;;5079139;28;20050;-73
2023/08/27 09:10:27;;;;;;;5.00;2.08;;;18.60;99.90;;;;;;5062876;28;20059;-74
2023/08/27 09:13:16;;;;;;;6.18;2.33;;;18.60;99.90;;;;;;5067615;28;20072;-75
2023/08/27 09:16:02;;;;;;;5.80;2.40;;;18.70;99.90;;;;;;5061097;28;20047;-74
2023/08/27 09:18:48;;;;;;;5.85;2.28;;;18.80;99.90;;;;;;5080004;28;20035;-74
2023/08/27 09:21:34;;;;;;;4.05;1.90;;;18.80;99.90;;;;;;5073722;28;20356;-74
2023/08/27 09:24:20;;;;;;;5.88;2.20;;;18.90;99.90;;;;;;5063902;28;20117;-74
2023/08/27 09:27:06;;;;;;;4.95;2.10;;;19.00;99.90;;;;;;5079644;28;20056;-74
2023/08/27 09:29:52;;;;;;;5.55;2.10;;;19.00;99.90;;;;;;5075540;28;20464;-74
2023/08/27 09:32:38;;;;;;;6.80;2.13;;;19.10;99.90;;;;;;5065257;28;20055;-74
2023/08/27 09:35:35;;;;;;;7.45;2.60;;;19.10;99.90;;;;;;5105467;28;20043;-76
2023/08/27 09:38:22;;;;;;;5.38;3.42;;;19.20;99.90;;;;;;5081890;28;20448;-75
2023/08/27 09:41:13;;;;;;;6.85;3.30;;;19.30;99.90;;;;;;5076920;28;20067;-74
2023/08/27 09:43:59;;;;;;;5.80;2.67;;;19.30;99.90;;;;;;5082383;28;20122;-75
2023/08/27 09:46:45;;;;;;;8.05;2.30;;;19.40;99.90;;;;;;5075770;28;20051;-75
2023/08/27 09:49:31;;;;;;;4.53;2.15;;;19.50;99.90;;;;;;5058390;28;20375;-76
2023/08/27 09:52:23;;;;;;;6.00;2.50;;;19.50;99.90;;;;;;5077003;28;20044;-74
2023/08/27 09:55:16;;;;;;;4.15;2.20;;;19.60;99.90;;;;;;5073778;28;20050;-75
2023/08/27 09:58:05;;;;;;;7.00;2.85;;;19.70;99.90;;;;;;5091258;28;20115;-74
2023/08/27 10:00:57;;;;;;;3.67;2.00;;;19.80;99.90;;;;;;5069173;28;20172;-75
2023/08/27 10:03:45;;;;;;;9.25;2.60;;;19.90;99.90;;;;;;5074693;28;20055;-74
2023/08/27 10:06:37;;;;;;;;;;;19.90;99.90;;;;;;5072095;28;20055;-75
2023/08/27 10:09:23;;;;;;;5.57;2.55;;;20.10;99.90;;;;;;5089686;28;20007;-75
2023/08/27 10:12:11;;;;;;;6.30;2.65;;;20.20;99.90;;;;;;5056069;28;20384;-74
2023/08/27 10:14:57;;;;;;;9.17;2.47;;;20.20;99.90;;;;;;5084225;28;20044;-74
2023/08/27 10:17:42;;;;;;;4.18;2.22;;;20.10;99.90;;;;;;5084651;28;20733;-75
2023/08/27 10:20:30;;;;;;;7.55;2.95;;;20.20;99.90;;;;;;5078859;28;20040;-75
2023/08/27 10:23:16;;;;;;;5.00;2.45;;;20.30;99.90;;;;;;5049282;28;20044;-75
2023/08/27 10:26:02;;;;;;;4.30;2.10;;;20.30;99.90;;;;;;5074874;28;20039;-75
2023/08/27 10:28:48;;;;;;;4.75;2.20;;;20.50;99.90;;;;;;5059738;28;20061;-75
2023/08/27 10:31:34;;;;;;;4.05;2.20;;;20.50;99.90;;;;;;5081789;28;20652;-74
2023/08/27 10:34:23;;;;;;;4.82;2.22;;;20.60;99.90;;;;;;5077281;28;20050;-71
2023/08/27 10:37:09;;;;;;;4.10;2.03;;;20.70;99.90;;;;;;5075096;28;20055;-72
2023/08/27 10:39:55;;;;;;;3.63;1.85;;;20.80;99.90;;;;;;5066987;28;20036;-71
2023/08/27 10:42:41;;;;;;;4.40;2.05;;;20.90;99.90;;;;;;5068612;28;20690;-73
2023/08/27 10:45:27;;;;;;;5.90;1.85;;;21.00;99.90;;;;;;5056165;28;20055;-72
2023/08/27 10:48:25;;;;;;;3.65;1.70;;;21.10;99.90;;;;;;5084741;28;20130;-72
2023/08/27 10:51:12;;;;;;;4.28;2.03;;;21.10;99.90;;;;;;5068844;28;20076;-72
2023/08/27 10:53:59;;;;;;;5.35;2.53;;;21.20;99.90;;;;;;5067481;28;20039;-71
2023/08/27 10:56:47;;;;;;;4.47;1.90;;;21.00;99.90;;;;;;5076291;28;20039;-72
2023/08/27 10:59:33;;;;;;;;;;;21.00;99.90;;;;;;5079054;28;20109;-71
2023/08/27 11:02:20;;;;;;;4.63;2.03;;;21.10;99.90;;;;;;5076358;28;19994;-72
2023/08/27 11:05:06;;;;;;;5.97;2.20;;;21.10;99.90;;;;;;5062491;28;20108;-72
2023/08/27 11:07:52;;;;;;;3.42;1.83;;;21.10;99.90;;;;;;5070898;28;20040;-72
2023/08/27 11:10:39;;;;;;;3.45;1.85;;;21.20;99.90;;;;;;5070247;28;20108;-71
2023/08/27 11:13:32;;;;;;;3.20;1.80;;;21.20;99.90;;;;;;5088653;28;20035;-72
2023/08/27 11:16:18;;;;;;;3.63;1.95;;;21.10;99.90;;;;;;5075981;28;20065;-72
2023/08/27 11:19:27;;;;;;;6.85;1.80;;;21.10;99.90;;;;;;5067008;28;20502;-71
2023/08/27 11:22:14;;;;;;;5.57;1.70;;;21.10;99.90;;;;;;5047586;28;20062;-71
2023/08/27 11:25:00;;;;;;;4.30;2.13;;;21.20;99.90;;;;;;5033485;28;20045;-71
2023/08/27 11:27:46;;;;;;;5.05;2.17;;;21.20;99.90;;;;;;5062857;28;20155;-72
2023/08/27 11:30:32;;;;;;;4.53;1.80;;;21.10;99.90;;;;;;5062557;28;20191;-71
2023/08/27 11:33:22;;;;;;;4.53;1.90;;;21.10;99.90;;;;;;5053697;28;20396;-72
2023/08/27 11:36:08;;;;;;;4.32;1.80;;;21.10;99.90;;;;;;5041093;28;20045;-73
2023/08/27 11:38:58;;;;;;;4.07;1.60;;;21.20;99.90;;;;;;5065006;28;20079;-72
2023/08/27 11:41:44;;;;;;;5.72;2.00;;;21.20;99.90;;;;;;5051735;28;20606;-71
2023/08/27 11:44:30;;;;;;;4.45;2.00;;;21.30;99.90;;;;;;5057320;28;20052;-72
2023/08/27 11:47:16;;;;;;;3.80;1.95;;;21.30;99.90;;;;;;5055210;28;20051;-72
2023/08/27 11:50:07;;;;;;;2.45;1.75;;;21.30;99.90;;;;;;5046443;28;20049;-72
2023/08/27 11:52:55;;;;;;;3.63;1.70;;;21.40;99.90;;;;;;5042172;28;20524;-72
2023/08/27 11:55:41;;;;;;;5.38;1.60;;;21.40;99.90;;;;;;5045514;28;20087;-73
2023/08/27 11:58:29;;;;;;;3.60;1.58;;;21.50;99.90;;;;;;5058962;28;20041;-71
2023/08/27 12:01:15;;;;;;;6.60;1.55;;;21.60;99.90;;;;;;5063555;28;20361;-71
2023/08/27 12:04:01;;;;;;;3.25;1.55;;;21.70;99.90;;;;;;5044216;28;20075;-71
2023/08/27 12:06:51;;;;;;;5.55;1.42;;;21.70;99.90;;;;;;5050710;28;20047;-72
2023/08/27 12:09:37;;;;;;;3.00;1.60;;;21.60;98.10;;;;;;5033198;28;20131;-71
2023/08/27 12:12:24;;;;;;;2.50;1.40;;;21.50;98.10;;;;;;5049076;28;20036;-71
2023/08/27 12:15:11;;;;;;;6.70;1.60;;;21.50;97.70;;;;;;5052759;28;20056;-71
2023/08/27 12:17:56;;;;;;;3.03;1.20;;;21.50;97.50;;;;;;5061998;28;20868;-71
2023/08/27 12:20:44;;;;;;;4.03;1.60;;;21.60;96.90;;;;;;5041791;28;20069;-71
2023/08/27 12:23:30;;;;;;;4.20;1.00;;;21.70;97.50;;;;;;5055951;28;20073;-72
2023/08/27 12:26:16;;;;;;;4.07;0.80;;;21.20;98.10;;;;;;5029402;28;20171;-72
2023/08/27 12:29:02;;;;;;;1.50;0.90;;;20.40;99.60;;;;;;5039331;28;20042;-71
2023/08/27 12:31:52;;;;;;;2.53;0.90;;;20.00;99.90;;;;;;5045253;28;20072;-71
2023/08/27 12:34:39;;;;;;;1.70;0.80;;;19.90;99.90;;;;;;5019026;28;20117;-70
2023/08/27 12:37:25;;;;;;;1.35;0.60;;;19.60;99.90;;;;;;5051179;28;20040;-72
2023/08/27 12:40:12;;;;;;;2.00;0.90;;;19.20;99.90;;;;;;5034957;28;20028;-71
2023/08/27 12:42:58;;;;;;;1.80;0.75;;;19.00;99.90;;;;;;5047649;28;20037;-72
2023/08/27 12:45:44;;;;;;;1.60;1.02;;;18.90;99.90;;;;;;5046367;28;20116;-72
2023/08/27 12:48:30;;;;;;;1.83;0.80;;;18.70;99.90;;;;;;5035349;28;20045;-72
2023/08/27 12:51:16;;;;;;;2.17;1.00;;;18.60;99.90;;;;;;5017937;28;20034;-72
2023/08/27 12:54:02;;;;;;;2.90;0.93;;;18.60;99.90;;;;;;5035197;28;20078;-72
2023/08/27 12:56:48;;;;;;;4.65;1.10;;;18.50;99.90;;;;;;5040681;28;20498;-71
2023/08/27 12:59:34;;;;;;;2.03;1.08;;;18.50;99.90;;;;;;5032981;28;20037;-71
2023/08/27 13:02:20;;;;;;;2.95;1.00;;;18.50;99.90;;;;;;5031012;28;20048;-71
2023/08/27 13:05:07;;;;;;;1.63;0.90;;;18.50;99.90;;;;;;5028398;28;20037;-71
2023/08/27 13:07:53;;;;;;;1.27;0.90;;;18.50;99.90;;;;;;5029887;28;20052;-71
2023/08/27 13:10:39;;;;;;;2.05;1.10;;;18.60;99.90;;;;;;5045471;28;20142;-71
2023/08/27 13:13:25;;;;;;;3.05;0.93;;;18.70;99.90;;;;;;5033460;28;20046;-71
2023/08/27 13:16:11;;;;;;;2.65;1.33;;;18.60;99.90;;;;;;5043442;28;20095;-71
2023/08/27 13:18:57;;;;;;;3.10;1.15;;;18.70;99.90;;;;;;5015224;28;20132;-71
2023/08/27 13:21:46;;;;;;;2.95;1.20;;;18.70;99.90;;;;;;5036794;28;20067;-71
2023/08/27 13:24:32;;;;;;;2.33;1.00;;;18.70;99.90;;;;;;5037995;28;20528;-71
2023/08/27 13:27:18;;;;;;;3.90;1.27;;;18.70;99.90;;;;;;5033092;28;20120;-71
2023/08/27 13:30:05;;;;;;;2.22;1.15;;;18.90;99.90;;;;;;5032873;28;20485;-71
2023/08/27 13:32:51;;;;;;;2.22;1.15;;;19.00;99.90;;;;;;5035309;28;20041;-71
2023/08/27 13:35:37;;;;;;;2.70;1.30;;;19.10;99.90;;;;;;5041570;28;20485;-72
2023/08/27 13:38:23;;;;;;;1.40;0.95;;;19.10;99.90;;;;;;5038295;28;20044;-71
2023/08/27 13:41:09;;;;;;;2.55;1.10;;;19.30;99.90;;;;;;5031986;28;20051;-71
2023/08/27 13:43:56;;;;;;;3.00;1.00;;;19.40;99.90;;;;;;5029487;28;20037;-71
2023/08/27 13:46:43;;;;;;;1.90;1.00;;;19.40;99.90;;;;;;5029082;28;20942;-71
2023/08/27 13:49:28;;;;;;;1.90;0.90;;;19.50;99.90;;;;;;5063672;28;20045;-71
2023/08/27 13:52:18;;;;;;;2.08;1.17;;;19.50;99.90;;;;;;5037756;28;20049;-71
2023/08/27 13:55:04;;;;;;;3.83;0.88;;;19.60;99.90;;;;;;5035239;28;20792;-71
2023/08/27 13:57:50;;;;;;;2.30;0.80;;;19.50;99.90;;;;;;5030121;28;20073;-71
2023/08/27 14:00:36;;;;;;;1.75;0.90;;;19.50;99.90;;;;;;5029727;28;20857;-71
2023/08/27 14:03:23;;;;;;;1.25;0.95;;;19.40;99.90;;;;;;5037891;28;20041;-71
2023/08/27 14:06:09;;;;;;;1.53;1.00;;;19.40;99.90;;;;;;5028215;28;20033;-71
2023/08/27 14:08:55;;;;;;;3.15;0.98;;;19.50;99.90;;;;;;5033500;28;20037;-71
2023/08/27 14:11:41;;;;;;;2.45;1.10;;;19.50;99.90;;;;;;5045122;28;20106;-71
2023/08/27 14:14:29;;;;;;;1.80;1.00;;;19.50;99.90;;;;;;5018026;28;20400;-71
2023/08/27 14:17:17;;;;;;;3.25;1.20;;;19.50;99.90;;;;;;5033370;28;20060;-71
2023/08/27 14:20:03;;;;;;;;;;;19.40;99.90;;;;;;5041763;28;20036;-71
2023/08/27 14:22:49;;;;;;;3.75;1.25;;;19.50;99.90;;;;;;5066373;28;19989;-71
2023/08/27 14:25:35;;;;;;;3.67;1.08;;;19.50;99.90;;;;;;5043097;28;20466;-71
2023/08/27 14:28:23;;;;;;;2.15;1.17;;;19.40;99.90;;;;;;5015687;28;20052;-72
2023/08/27 14:31:09;;;;;;;3.03;1.10;;;19.50;99.90;;;;;;5046061;28;20041;-72